Weott, California
Current Conditions -  °F | °C
As of 4:10 AM on Monday 20 Oct 2014 (Local Time) from KFOT Reporting Station
Overcast Overcast  
Wind Chill: 57°   Ceiling: 200
Heat Index: 57°   Visibility: 1mi
Dew Point: 57°   Wind: 6mph
Humidity: 100%   Direction: 10°N
Pressure: 29.84"   Gusts: NA
Location:  40.32°N, 123.92°W
Report Text: KFOT 201110Z AUTO 01005KT 1SM OVC002 14/14 A2984 RMK AO1
Loading
Personal Weather Stations






























Interactive Weather Map
Tropical Storm Tracking
New forecast layout! Learn more

10-Day Weather Forecast

Advertisements
Track Severe Weather on mobile